createdAt,value
2022-10-21T00:00:05.942Z,1010.26
2022-10-21T00:01:05.931Z,1010.22
2022-10-21T00:02:05.926Z,1010.19
2022-10-21T00:03:05.918Z,1010.24
2022-10-21T00:04:05.913Z,1010.19
2022-10-21T00:05:05.912Z,1010.23
2022-10-21T00:06:05.914Z,1010.29
2022-10-21T00:07:05.917Z,1010.28
2022-10-21T00:08:05.903Z,1010.24
2022-10-21T00:09:05.942Z,1010.19
2022-10-21T00:10:05.901Z,1010.19
2022-10-21T00:11:05.903Z,1010.14
2022-10-21T00:12:05.887Z,1010.15
2022-10-21T00:13:05.876Z,1010.27
2022-10-21T00:14:05.863Z,1010.22
2022-10-21T00:15:05.863Z,1010.21
2022-10-21T00:16:05.859Z,1010.26
2022-10-21T00:17:05.852Z,1010.20
2022-10-21T00:18:05.845Z,1010.26
2022-10-21T00:19:05.840Z,1010.21
2022-10-21T00:20:05.854Z,1010.22
2022-10-21T00:21:05.837Z,1010.18
2022-10-21T00:22:05.829Z,1010.12
2022-10-21T00:23:05.829Z,1010.09
2022-10-21T00:24:05.822Z,1010.08
2022-10-21T00:25:05.809Z,1010.12
2022-10-21T00:26:05.819Z,1010.24
2022-10-21T00:27:05.806Z,1010.38
2022-10-21T00:28:05.801Z,1010.39
2022-10-21T00:29:05.799Z,1010.39
2022-10-21T00:30:05.791Z,1010.43
2022-10-21T00:31:05.787Z,1010.44
2022-10-21T00:32:05.803Z,1010.44
2022-10-21T00:33:05.772Z,1010.40
2022-10-21T00:34:05.762Z,1010.49
2022-10-21T00:35:05.788Z,1010.52
2022-10-21T00:36:05.768Z,1010.49
2022-10-21T00:37:05.770Z,1010.49
2022-10-21T00:38:05.772Z,1010.52
2022-10-21T00:39:05.739Z,1010.58
2022-10-21T00:40:05.740Z,1010.58
2022-10-21T00:41:05.737Z,1010.55
2022-10-21T00:42:05.724Z,1010.54
2022-10-21T00:43:05.737Z,1010.48
2022-10-21T00:44:05.731Z,1010.49
2022-10-21T00:45:05.729Z,1010.52
2022-10-21T00:46:05.698Z,1010.52
2022-10-21T00:47:05.736Z,1010.49
2022-10-21T00:48:05.706Z,1010.45
2022-10-21T00:49:05.691Z,1010.42
2022-10-21T00:50:05.693Z,1010.40
2022-10-21T00:51:05.696Z,1010.41
2022-10-21T00:52:05.688Z,1010.40
2022-10-21T00:53:05.681Z,1010.49
2022-10-21T00:54:05.675Z,1010.46
2022-10-21T00:55:05.685Z,1010.44
2022-10-21T00:56:05.677Z,1010.44
2022-10-21T00:57:05.654Z,1010.47
2022-10-21T00:58:05.681Z,1010.38
2022-10-21T00:59:05.653Z,1010.41
2022-10-21T01:00:05.655Z,1010.41
2022-10-21T01:01:05.702Z,1010.40
2022-10-21T01:02:05.640Z,1010.36
2022-10-21T01:03:05.649Z,1010.39
2022-10-21T01:04:05.613Z,1010.29
2022-10-21T01:05:05.611Z,1010.29
2022-10-21T01:06:05.622Z,1010.26
2022-10-21T01:07:05.617Z,1010.25
2022-10-21T01:08:05.602Z,1010.15
2022-10-21T01:09:05.742Z,1010.15
2022-10-21T01:10:05.603Z,1010.13
2022-10-21T01:11:05.595Z,1010.14
2022-10-21T01:12:05.602Z,1010.11
2022-10-21T01:13:05.573Z,1010.13
2022-10-21T01:14:05.563Z,1010.13
2022-10-21T01:15:05.569Z,1010.11
2022-10-21T01:16:05.565Z,1010.14
2022-10-21T01:17:15.623Z,1010.11
2022-10-21T01:18:05.574Z,1010.11
2022-10-21T01:19:05.569Z,1010.09
2022-10-21T01:20:05.542Z,1010.06
2022-10-21T01:21:05.547Z,1010.10
2022-10-21T01:22:05.536Z,1010.09
2022-10-21T01:23:05.522Z,1010.06
2022-10-21T01:25:05.511Z,1010.04
2022-10-21T01:26:05.514Z,1010.06
2022-10-21T01:27:05.505Z,1009.99
2022-10-21T01:28:05.538Z,1009.98
2022-10-21T01:29:05.492Z,1009.91
2022-10-21T01:30:05.497Z,1009.86
2022-10-21T01:31:05.481Z,1009.83
2022-10-21T01:32:05.475Z,1009.89
2022-10-21T01:33:05.526Z,1009.82
2022-10-21T01:34:05.461Z,1009.79
2022-10-21T01:35:05.466Z,1009.77
2022-10-21T01:36:05.478Z,1009.71
2022-10-21T01:37:05.457Z,1009.69
2022-10-21T01:38:05.457Z,1009.70
2022-10-21T01:39:05.443Z,1009.69
2022-10-21T01:40:05.458Z,1009.68
2022-10-21T01:41:05.432Z,1009.60
2022-10-21T01:42:05.460Z,1009.70
2022-10-21T01:43:05.543Z,1009.64
2022-10-21T01:44:05.431Z,1009.67
2022-10-21T01:45:05.413Z,1009.67
2022-10-21T01:46:05.413Z,1009.68
2022-10-21T01:47:05.412Z,1009.67
2022-10-21T01:48:05.401Z,1009.74
2022-10-21T01:49:05.441Z,1009.69
2022-10-21T01:50:05.384Z,1009.70
2022-10-21T01:51:05.391Z,1009.69
2022-10-21T01:52:05.419Z,1009.70
2022-10-21T01:53:05.378Z,1009.67
2022-10-21T01:54:05.371Z,1009.62
2022-10-21T01:55:05.393Z,1009.61
2022-10-21T01:56:05.363Z,1009.57
2022-10-21T01:57:05.357Z,1009.54
2022-10-21T01:58:05.423Z,1009.50
2022-10-21T01:59:05.353Z,1009.45
2022-10-21T02:00:05.346Z,1009.43
2022-10-21T02:01:05.379Z,1009.45
2022-10-21T02:02:05.349Z,1009.48
2022-10-21T02:03:05.342Z,1009.51
2022-10-21T02:04:05.325Z,1009.47
2022-10-21T02:05:05.329Z,1009.47
2022-10-21T02:06:05.308Z,1009.47
2022-10-21T02:07:05.404Z,1009.40
2022-10-21T02:08:05.300Z,1009.39
2022-10-21T02:09:05.413Z,1009.31
2022-10-21T02:10:05.334Z,1009.25
2022-10-21T02:11:05.280Z,1009.20
2022-10-21T02:12:05.298Z,1009.22
2022-10-21T02:13:05.275Z,1009.19
2022-10-21T02:14:05.277Z,1009.22
2022-10-21T02:15:05.280Z,1009.19
2022-10-21T02:16:05.415Z,1009.20
2022-10-21T02:17:05.265Z,1009.19
2022-10-21T02:18:05.248Z,1009.16
2022-10-21T02:19:05.245Z,1009.17
2022-10-21T02:20:05.243Z,1009.11
2022-10-21T02:21:05.247Z,1009.09
2022-10-21T02:22:05.235Z,1009.10
2022-10-21T02:23:05.243Z,1009.07
2022-10-21T02:24:05.234Z,1009.04
2022-10-21T02:25:05.251Z,1009.00
2022-10-21T02:26:05.220Z,1008.98
2022-10-21T02:27:05.219Z,1008.97
2022-10-21T02:28:05.217Z,1008.89
2022-10-21T02:29:05.198Z,1008.91
2022-10-21T02:30:05.202Z,1008.89
2022-10-21T02:31:05.186Z,1008.93
2022-10-21T02:32:05.247Z,1008.97
2022-10-21T02:33:05.179Z,1009.00
2022-10-21T02:34:05.198Z,1009.00
2022-10-21T02:35:05.171Z,1008.99
2022-10-21T02:36:05.180Z,1009.03
2022-10-21T02:37:05.163Z,1009.10
2022-10-21T02:38:05.178Z,1009.16
2022-10-21T02:39:05.194Z,1009.17
2022-10-21T02:40:05.155Z,1009.19
2022-10-21T02:41:05.144Z,1009.18
2022-10-21T02:42:05.140Z,1009.15
2022-10-21T02:43:05.201Z,1009.05
2022-10-21T02:44:05.132Z,1009.09
2022-10-21T02:45:05.124Z,1009.08
2022-10-21T02:46:05.126Z,1009.02
2022-10-21T02:47:05.209Z,1009.00
2022-10-21T02:48:05.112Z,1008.94
2022-10-21T02:49:05.109Z,1008.90
2022-10-21T02:50:05.130Z,1008.91
2022-10-21T02:51:05.107Z,1008.87
2022-10-21T02:52:05.137Z,1008.88
2022-10-21T02:53:05.106Z,1008.83
2022-10-21T02:54:05.086Z,1008.82
2022-10-21T02:55:05.088Z,1008.82
2022-10-21T02:56:05.069Z,1008.76
2022-10-21T02:57:05.077Z,1008.71
2022-10-21T02:58:05.057Z,1008.70
2022-10-21T02:59:05.055Z,1008.64
2022-10-21T03:00:05.052Z,1008.54
2022-10-21T03:01:05.100Z,1008.50
2022-10-21T03:02:05.050Z,1008.44
2022-10-21T03:03:05.070Z,1008.45
2022-10-21T03:04:05.052Z,1008.42
2022-10-21T03:05:05.056Z,1008.42
2022-10-21T03:06:05.036Z,1008.53
2022-10-21T03:07:05.036Z,1008.56
2022-10-21T03:08:05.014Z,1008.51
2022-10-21T03:09:05.115Z,1008.49
2022-10-21T03:10:04.992Z,1008.53
2022-10-21T03:11:05.027Z,1008.53
2022-10-21T03:12:04.999Z,1008.58
2022-10-21T03:13:05.050Z,1008.58
2022-10-21T03:14:05.011Z,1008.58
2022-10-21T03:15:04.980Z,1008.60
2022-10-21T03:16:05.058Z,1008.61
2022-10-21T03:17:04.984Z,1008.59
2022-10-21T03:18:04.962Z,1008.60
2022-10-21T03:19:04.967Z,1008.59
2022-10-21T03:20:04.963Z,1008.56
2022-10-21T03:21:04.960Z,1008.57
2022-10-21T03:22:04.956Z,1008.55
2022-10-21T03:23:04.953Z,1008.60
2022-10-21T03:24:10.910Z,1008.59
2022-10-21T03:25:04.945Z,1008.63
2022-10-21T03:26:04.949Z,1008.64
2022-10-21T03:27:04.952Z,1008.70
2022-10-21T03:28:04.932Z,1008.67
2022-10-21T03:29:04.929Z,1008.64
2022-10-21T03:30:04.926Z,1008.66
2022-10-21T03:31:04.933Z,1008.66
2022-10-21T03:32:04.901Z,1008.67
2022-10-21T03:33:04.909Z,1008.60
2022-10-21T03:34:04.897Z,1008.60
2022-10-21T03:35:04.891Z,1008.61
2022-10-21T03:36:04.896Z,1008.61
2022-10-21T03:37:04.877Z,1008.60
2022-10-21T03:38:04.883Z,1008.56
2022-10-21T03:39:04.872Z,1008.52
2022-10-21T03:40:06.410Z,1008.50
2022-10-21T03:41:04.875Z,1008.52
2022-10-21T03:42:04.875Z,1008.48
2022-10-21T03:43:04.846Z,1008.58
2022-10-21T03:44:04.846Z,1008.59
2022-10-21T03:45:12.028Z,1008.60
2022-10-21T03:47:08.837Z,1008.62
2022-10-21T03:48:08.815Z,1008.59
2022-10-21T03:49:15.553Z,1008.54
2022-10-21T03:50:11.939Z,1008.58
2022-10-21T03:51:08.799Z,1008.65
2022-10-21T03:52:08.797Z,1008.76
2022-10-21T03:53:18.637Z,1008.76
2022-10-21T03:54:08.849Z,1008.77
2022-10-21T03:55:08.772Z,1008.73
2022-10-21T03:56:08.775Z,1008.71
2022-10-21T03:57:08.774Z,1008.71
2022-10-21T03:58:08.770Z,1008.69
2022-10-21T03:59:08.767Z,1008.68
2022-10-21T04:00:08.792Z,1008.70
2022-10-21T04:01:08.744Z,1008.66
2022-10-21T04:02:08.745Z,1008.62
2022-10-21T04:03:08.783Z,1008.63
2022-10-21T04:04:08.735Z,1008.64
2022-10-21T04:05:08.733Z,1008.60
2022-10-21T04:06:08.728Z,1008.62
2022-10-21T04:07:08.730Z,1008.59
2022-10-21T04:08:08.716Z,1008.59
2022-10-21T04:09:08.776Z,1008.50
2022-10-21T04:10:08.708Z,1008.45
2022-10-21T04:11:08.703Z,1008.45
2022-10-21T04:12:08.696Z,1008.46
2022-10-21T04:13:08.695Z,1008.39
2022-10-21T04:14:11.597Z,1008.33
2022-10-21T04:15:08.688Z,1008.30
2022-10-21T04:16:08.689Z,1008.31
2022-10-21T04:17:08.671Z,1008.22
2022-10-21T04:18:08.674Z,1008.18
2022-10-21T04:19:08.666Z,1008.18
2022-10-21T04:20:08.657Z,1008.17
2022-10-21T04:21:08.659Z,1008.16
2022-10-21T04:22:08.656Z,1008.16
2022-10-21T04:23:08.644Z,1008.16
2022-10-21T04:24:08.640Z,1008.22
2022-10-21T04:25:08.640Z,1008.14
2022-10-21T04:26:08.634Z,1008.05
2022-10-21T04:27:08.623Z,1007.93
2022-10-21T04:28:08.624Z,1007.89
2022-10-21T04:29:08.628Z,1007.89
2022-10-21T04:30:08.625Z,1007.86
2022-10-21T04:31:08.605Z,1007.84
2022-10-21T04:32:08.602Z,1007.88
2022-10-21T04:33:08.615Z,1007.82
2022-10-21T04:34:08.598Z,1007.83
2022-10-21T04:35:08.588Z,1007.81
2022-10-21T04:36:08.582Z,1007.78
2022-10-21T04:37:08.575Z,1007.79
2022-10-21T04:38:08.583Z,1007.79
2022-10-21T04:39:08.570Z,1007.83
2022-10-21T04:40:08.565Z,1007.85
2022-10-21T04:41:08.567Z,1007.87
2022-10-21T04:42:08.563Z,1007.87
2022-10-21T04:43:08.557Z,1007.85
2022-10-21T04:44:08.546Z,1007.80
2022-10-21T04:45:08.553Z,1007.85
2022-10-21T04:46:09.999Z,1007.75
2022-10-21T04:47:08.532Z,1007.71
2022-10-21T04:48:08.528Z,1007.69
2022-10-21T04:49:08.520Z,1007.68
2022-10-21T04:50:08.527Z,1007.67
2022-10-21T04:51:08.524Z,1007.65
2022-10-21T04:52:08.535Z,1007.66
2022-10-21T04:53:08.508Z,1007.66
2022-10-21T04:54:08.505Z,1007.67
2022-10-21T04:55:08.494Z,1007.62
2022-10-21T04:56:08.492Z,1007.59
2022-10-21T04:57:08.490Z,1007.61
2022-10-21T04:58:08.482Z,1007.61
2022-10-21T04:59:08.488Z,1007.65
2022-10-21T05:00:08.478Z,1007.64
2022-10-21T05:01:08.518Z,1007.57
2022-10-21T05:02:08.474Z,1007.55
2022-10-21T05:03:08.460Z,1007.53
2022-10-21T05:04:08.462Z,1007.54
2022-10-21T05:05:08.453Z,1007.53
2022-10-21T05:06:08.461Z,1007.45
2022-10-21T05:07:08.443Z,1007.45
2022-10-21T05:08:11.503Z,1007.40
2022-10-21T05:09:08.491Z,1007.39
2022-10-21T05:10:08.446Z,1007.35
2022-10-21T05:11:08.429Z,1007.30
2022-10-21T05:12:08.460Z,1007.25
2022-10-21T05:13:08.412Z,1007.23
2022-10-21T05:14:08.412Z,1007.23
2022-10-21T05:15:08.405Z,1007.17
2022-10-21T05:16:08.414Z,1007.20
2022-10-21T05:17:08.406Z,1007.26
2022-10-21T05:18:08.411Z,1007.28
2022-10-21T05:19:08.393Z,1007.36
2022-10-21T05:20:08.386Z,1007.33
2022-10-21T05:21:08.372Z,1007.28
2022-10-21T05:22:08.368Z,1007.30
2022-10-21T05:23:08.370Z,1007.29
2022-10-21T05:24:08.373Z,1007.36
2022-10-21T05:25:08.366Z,1007.34
2022-10-21T05:26:08.370Z,1007.27
2022-10-21T05:27:08.361Z,1007.28
2022-10-21T05:28:08.357Z,1007.28
2022-10-21T05:29:08.341Z,1007.23
2022-10-21T05:30:08.335Z,1007.29
2022-10-21T05:31:08.331Z,1007.23
2022-10-21T05:32:08.330Z,1007.23
2022-10-21T05:33:08.336Z,1007.24
2022-10-21T05:34:08.316Z,1007.19
2022-10-21T05:35:08.321Z,1007.19
2022-10-21T05:36:08.317Z,1007.24
2022-10-21T05:37:08.374Z,1007.24
2022-10-21T05:38:08.315Z,1007.25
2022-10-21T05:39:08.289Z,1007.21
2022-10-21T05:40:08.287Z,1007.23
2022-10-21T05:41:08.313Z,1007.17
2022-10-21T05:42:08.291Z,1007.18
2022-10-21T05:43:08.283Z,1007.11
2022-10-21T05:44:08.278Z,1007.10
2022-10-21T05:45:08.360Z,1007.10
2022-10-21T05:46:08.294Z,1007.07
2022-10-21T05:47:08.257Z,1007.13
2022-10-21T05:48:08.257Z,1007.09
2022-10-21T05:49:08.279Z,1007.12
2022-10-21T05:50:08.259Z,1007.05
2022-10-21T05:51:08.257Z,1007.08
2022-10-21T05:52:08.271Z,1007.09
2022-10-21T05:53:08.230Z,1007.12
2022-10-21T05:54:08.222Z,1007.07
2022-10-21T05:55:08.272Z,1007.09
2022-10-21T05:56:08.224Z,1007.06
2022-10-21T05:57:08.211Z,1007.00
2022-10-21T05:58:08.217Z,1006.93
2022-10-21T05:59:10.250Z,1006.91
2022-10-21T06:00:08.217Z,1006.93
2022-10-21T06:01:08.238Z,1006.94
2022-10-21T06:02:08.199Z,1006.94
2022-10-21T06:03:08.213Z,1006.92
2022-10-21T06:04:08.178Z,1006.88
2022-10-21T06:05:08.211Z,1006.92
2022-10-21T06:06:08.177Z,1006.96
2022-10-21T06:07:08.171Z,1006.98
2022-10-21T06:08:08.204Z,1006.93
2022-10-21T06:09:08.193Z,1006.95
2022-10-21T06:10:08.163Z,1006.99
2022-10-21T06:11:08.185Z,1006.95
2022-10-21T06:12:08.162Z,1006.95
2022-10-21T06:13:08.128Z,1006.95
2022-10-21T06:14:08.138Z,1007.01
2022-10-21T06:15:08.121Z,1006.97
2022-10-21T06:16:08.123Z,1006.99
2022-10-21T06:17:08.114Z,1007.04
2022-10-21T06:18:08.145Z,1007.04
2022-10-21T06:19:08.114Z,1007.01
2022-10-21T06:20:08.108Z,1007.10
2022-10-21T06:21:08.093Z,1007.04
2022-10-21T06:22:08.095Z,1007.11
2022-10-21T06:23:08.090Z,1007.12
2022-10-21T06:24:08.095Z,1007.05
2022-10-21T06:25:08.119Z,1007.13
2022-10-21T06:26:08.076Z,1007.13
2022-10-21T06:27:08.067Z,1007.16
2022-10-21T06:28:08.071Z,1007.18
2022-10-21T06:29:08.066Z,1007.22
2022-10-21T06:30:08.055Z,1007.22
2022-10-21T06:31:08.085Z,1007.15
2022-10-21T06:32:08.045Z,1007.13
2022-10-21T06:33:08.051Z,1007.08
2022-10-21T06:34:08.137Z,1007.04
2022-10-21T06:35:08.042Z,1007.13
2022-10-21T06:36:08.034Z,1007.17
2022-10-21T06:37:08.032Z,1007.15
2022-10-21T06:38:08.062Z,1007.12
2022-10-21T06:39:08.017Z,1007.18
2022-10-21T06:40:08.004Z,1007.18
2022-10-21T06:41:10.735Z,1007.21
2022-10-21T06:42:07.992Z,1007.20
2022-10-21T06:43:08.039Z,1007.21
2022-10-21T06:44:08.013Z,1007.24
2022-10-21T06:45:07.985Z,1007.18
2022-10-21T06:46:07.983Z,1007.18
2022-10-21T06:47:07.974Z,1007.16
2022-10-21T06:48:07.973Z,1007.27
2022-10-21T06:49:07.963Z,1007.25
2022-10-21T06:50:07.968Z,1007.19
2022-10-21T06:51:07.954Z,1007.14
2022-10-21T06:52:07.992Z,1007.18
2022-10-21T06:53:07.960Z,1007.16
2022-10-21T06:54:07.946Z,1007.10
2022-10-21T06:55:07.938Z,1007.09
2022-10-21T06:56:07.942Z,1007.05
2022-10-21T06:57:07.953Z,1007.12
2022-10-21T06:58:07.929Z,1007.12
2022-10-21T06:59:07.920Z,1007.10
2022-10-21T07:00:07.911Z,1007.16
2022-10-21T07:01:16.530Z,1007.21
2022-10-21T07:02:07.898Z,1007.26
2022-10-21T07:03:07.925Z,1007.22
2022-10-21T07:04:07.905Z,1007.15
2022-10-21T07:05:07.884Z,1007.15
2022-10-21T07:06:07.885Z,1007.13
2022-10-21T07:07:07.901Z,1007.15
2022-10-21T07:08:10.571Z,1007.16
2022-10-21T07:09:07.918Z,1007.13
2022-10-21T07:10:07.944Z,1007.20
2022-10-21T07:11:07.855Z,1007.21
2022-10-21T07:12:07.866Z,1007.22
2022-10-21T07:13:07.869Z,1007.19
2022-10-21T07:14:07.847Z,1007.26
2022-10-21T07:15:07.857Z,1007.32
2022-10-21T07:16:07.838Z,1007.30
2022-10-21T07:17:07.936Z,1007.29
2022-10-21T07:18:07.831Z,1007.30
2022-10-21T07:19:07.843Z,1007.31
2022-10-21T07:20:07.838Z,1007.31
2022-10-21T07:21:07.829Z,1007.39
2022-10-21T07:22:07.811Z,1007.43
2022-10-21T07:23:07.814Z,1007.41
2022-10-21T07:24:07.888Z,1007.40
2022-10-21T07:25:07.801Z,1007.39
2022-10-21T07:26:07.798Z,1007.34
2022-10-21T07:27:07.797Z,1007.37
2022-10-21T07:28:07.795Z,1007.34
2022-10-21T07:29:07.780Z,1007.36
2022-10-21T07:30:07.783Z,1007.41
2022-10-21T07:31:07.788Z,1007.37
2022-10-21T07:32:07.767Z,1007.38
2022-10-21T07:33:07.769Z,1007.38
2022-10-21T07:34:07.774Z,1007.43
2022-10-21T07:35:07.751Z,1007.36
2022-10-21T07:36:07.753Z,1007.38
2022-10-21T07:37:07.743Z,1007.32
2022-10-21T07:38:07.740Z,1007.25
2022-10-21T07:39:07.767Z,1007.29
2022-10-21T07:40:07.755Z,1007.31
2022-10-21T07:41:07.731Z,1007.35
2022-10-21T07:42:07.731Z,1007.34
2022-10-21T07:43:07.756Z,1007.35
2022-10-21T07:44:07.713Z,1007.33
2022-10-21T07:45:07.719Z,1007.30
2022-10-21T07:46:07.707Z,1007.31
2022-10-21T07:47:07.707Z,1007.34
2022-10-21T07:48:07.705Z,1007.34
2022-10-21T07:49:07.708Z,1007.30
2022-10-21T07:50:07.702Z,1007.31
2022-10-21T07:51:07.694Z,1007.28
2022-10-21T07:52:07.716Z,1007.34
2022-10-21T07:53:12.303Z,1007.29
2022-10-21T07:54:07.672Z,1007.30
2022-10-21T07:55:07.664Z,1007.33
2022-10-21T07:56:07.687Z,1007.28
2022-10-21T07:57:07.669Z,1007.27
2022-10-21T07:58:07.676Z,1007.22
2022-10-21T07:59:12.437Z,1007.24
2022-10-21T08:00:07.676Z,1007.22
2022-10-21T08:01:07.713Z,1007.15
2022-10-21T08:02:07.682Z,1007.13
2022-10-21T08:03:07.658Z,1007.18
2022-10-21T08:04:07.647Z,1007.17
2022-10-21T08:05:07.625Z,1007.24
2022-10-21T08:06:07.629Z,1007.29
2022-10-21T08:07:10.330Z,1007.28
2022-10-21T08:08:07.613Z,1007.34
2022-10-21T08:09:07.769Z,1007.31
2022-10-21T08:10:07.602Z,1007.31
2022-10-21T08:11:07.610Z,1007.37
2022-10-21T08:12:10.399Z,1007.33
2022-10-21T08:13:07.631Z,1007.37
2022-10-21T08:14:07.597Z,1007.35
2022-10-21T08:15:07.594Z,1007.33
2022-10-21T08:16:07.594Z,1007.33
2022-10-21T08:17:07.594Z,1007.37
2022-10-21T08:18:07.587Z,1007.31
2022-10-21T08:19:07.570Z,1007.36
2022-10-21T08:20:07.573Z,1007.37
2022-10-21T08:21:07.556Z,1007.35
2022-10-21T08:22:07.563Z,1007.35
2022-10-21T08:23:07.552Z,1007.34
2022-10-21T08:24:07.561Z,1007.26
2022-10-21T08:25:07.539Z,1007.20
2022-10-21T08:26:07.552Z,1007.19
2022-10-21T08:27:07.579Z,1007.19
2022-10-21T08:28:07.533Z,1007.25
2022-10-21T08:29:07.538Z,1007.19
2022-10-21T08:30:07.529Z,1007.21
2022-10-21T08:31:07.524Z,1007.23
2022-10-21T08:32:07.517Z,1007.17
2022-10-21T08:33:07.501Z,1007.17
2022-10-21T08:34:07.514Z,1007.13
2022-10-21T08:35:07.508Z,1007.11
2022-10-21T08:36:07.516Z,1007.08
2022-10-21T08:37:07.518Z,1007.05
2022-10-21T08:39:07.496Z,1007.06
2022-10-21T08:40:07.488Z,1007.09
2022-10-21T08:41:07.491Z,1007.06
2022-10-21T08:42:07.569Z,1007.06
2022-10-21T08:43:07.515Z,1007.08
2022-10-21T08:44:07.476Z,1007.01
2022-10-21T08:45:07.477Z,1007.01
2022-10-21T08:46:07.485Z,1007.00
2022-10-21T08:47:10.575Z,1006.99
2022-10-21T08:48:07.468Z,1006.99
2022-10-21T08:49:07.460Z,1007.01
2022-10-21T08:50:07.491Z,1007.03
2022-10-21T08:51:07.446Z,1007.05
2022-10-21T08:52:07.443Z,1007.06
2022-10-21T08:53:07.448Z,1007.03
2022-10-21T08:54:07.438Z,1006.99
2022-10-21T08:55:07.523Z,1006.98
2022-10-21T08:56:07.485Z,1006.98
2022-10-21T08:57:07.428Z,1006.96
2022-10-21T08:58:07.424Z,1007.05
2022-10-21T08:59:07.417Z,1007.05
2022-10-21T09:00:07.413Z,1007.02
2022-10-21T09:01:07.417Z,1007.01
2022-10-21T09:02:07.412Z,1007.00
2022-10-21T09:03:07.444Z,1007.03
2022-10-21T09:04:07.410Z,1006.97
2022-10-21T09:05:07.419Z,1006.92
2022-10-21T09:06:07.397Z,1006.92
2022-10-21T09:07:07.420Z,1006.90
2022-10-21T09:08:07.387Z,1006.89
2022-10-21T09:09:07.475Z,1006.86
2022-10-21T09:10:07.378Z,1006.84
2022-10-21T09:11:07.410Z,1006.79
2022-10-21T09:12:07.376Z,1006.85
2022-10-21T09:13:07.371Z,1006.86
2022-10-21T09:14:07.370Z,1006.85
2022-10-21T09:15:10.465Z,1006.84
2022-10-21T09:16:07.358Z,1006.86
2022-10-21T09:17:07.384Z,1006.75
2022-10-21T09:18:07.394Z,1006.77
2022-10-21T09:19:07.365Z,1006.73
2022-10-21T09:20:07.374Z,1006.76
2022-10-21T09:21:07.354Z,1006.79
2022-10-21T09:22:30.018Z,1006.79
2022-10-21T09:23:07.351Z,1006.77
2022-10-21T09:24:07.403Z,1006.74
2022-10-21T09:25:07.351Z,1006.73
2022-10-21T09:26:07.353Z,1006.70
2022-10-21T09:27:07.336Z,1006.73
2022-10-21T09:28:07.321Z,1006.72
2022-10-21T09:29:07.379Z,1006.68
2022-10-21T09:30:07.327Z,1006.67
2022-10-21T09:31:07.323Z,1006.67
2022-10-21T09:32:07.319Z,1006.69
2022-10-21T09:33:07.335Z,1006.68
2022-10-21T09:34:07.314Z,1006.71
2022-10-21T09:35:07.322Z,1006.75
2022-10-21T09:36:07.299Z,1006.68
2022-10-21T09:37:07.306Z,1006.73
2022-10-21T09:38:07.316Z,1006.73
2022-10-21T09:39:07.304Z,1006.70
2022-10-21T09:40:07.296Z,1006.70
2022-10-21T09:41:07.306Z,1006.73
2022-10-21T09:42:13.473Z,1006.72
2022-10-21T09:43:07.287Z,1006.70
2022-10-21T09:44:07.284Z,1006.72
2022-10-21T09:45:07.283Z,1006.74
2022-10-21T09:46:07.283Z,1006.71
2022-10-21T09:47:07.291Z,1006.74
2022-10-21T09:48:07.290Z,1006.74
2022-10-21T09:49:36.732Z,1006.77
2022-10-21T09:50:08.310Z,1006.77
2022-10-21T09:51:07.266Z,1006.82
2022-10-21T09:52:07.274Z,1006.79
2022-10-21T09:53:07.266Z,1006.85
2022-10-21T09:54:07.270Z,1006.84
2022-10-21T09:55:07.268Z,1006.82
2022-10-21T09:56:07.258Z,1006.77
2022-10-21T09:57:07.266Z,1006.77
2022-10-21T09:58:07.258Z,1006.74
2022-10-21T09:59:07.910Z,1006.76
2022-10-21T10:00:11.055Z,1006.77
2022-10-21T10:01:07.269Z,1006.77
2022-10-21T10:02:07.323Z,1006.78
2022-10-21T10:03:07.235Z,1006.78
2022-10-21T10:04:07.232Z,1006.77
2022-10-21T10:05:07.231Z,1006.75
2022-10-21T10:06:07.234Z,1006.77
2022-10-21T10:07:07.246Z,1006.77
2022-10-21T10:08:07.235Z,1006.75
2022-10-21T10:09:07.237Z,1006.74
2022-10-21T10:10:07.261Z,1006.71
2022-10-21T10:11:07.813Z,1006.64
2022-10-21T10:12:07.290Z,1006.61
2022-10-21T10:13:07.232Z,1006.59
2022-10-21T10:14:07.221Z,1006.56
2022-10-21T10:15:07.208Z,1006.57
2022-10-21T10:16:07.226Z,1006.57
2022-10-21T10:17:07.210Z,1006.54
2022-10-21T10:18:07.213Z,1006.52
2022-10-21T10:19:07.201Z,1006.46
2022-10-21T10:20:07.206Z,1006.49
2022-10-21T10:21:07.216Z,1006.50
2022-10-21T10:22:10.247Z,1006.44
2022-10-21T10:23:07.188Z,1006.40
2022-10-21T10:24:07.188Z,1006.39
2022-10-21T10:25:07.189Z,1006.40
2022-10-21T10:26:07.184Z,1006.39
2022-10-21T10:27:07.190Z,1006.40
2022-10-21T10:28:07.170Z,1006.40
2022-10-21T10:29:07.171Z,1006.41
2022-10-21T10:30:07.199Z,1006.38
2022-10-21T10:31:07.184Z,1006.31
2022-10-21T10:32:07.197Z,1006.37
2022-10-21T10:33:07.164Z,1006.40
2022-10-21T10:34:07.166Z,1006.39
2022-10-21T10:35:07.187Z,1006.36
2022-10-21T10:36:09.393Z,1006.41
2022-10-21T10:37:07.164Z,1006.42
2022-10-21T10:38:07.254Z,1006.34
2022-10-21T10:39:07.160Z,1006.33
2022-10-21T10:40:07.150Z,1006.31
2022-10-21T10:41:07.148Z,1006.27
2022-10-21T10:42:07.145Z,1006.22
2022-10-21T10:43:07.138Z,1006.17
2022-10-21T10:44:07.135Z,1006.17
2022-10-21T10:45:07.132Z,1006.22
2022-10-21T10:46:07.154Z,1006.21
2022-10-21T10:47:07.145Z,1006.17
2022-10-21T10:48:07.160Z,1006.15
2022-10-21T10:49:07.157Z,1006.19
2022-10-21T10:50:07.129Z,1006.10
2022-10-21T10:51:07.138Z,1006.12
2022-10-21T10:52:07.131Z,1006.11
2022-10-21T10:53:07.139Z,1006.07
2022-10-21T10:54:07.227Z,1005.99
2022-10-21T10:55:07.133Z,1006.07
2022-10-21T10:56:07.114Z,1006.05
2022-10-21T10:57:07.108Z,1005.97
2022-10-21T10:58:11.701Z,1006.00
2022-10-21T10:59:07.116Z,1006.00
2022-10-21T11:00:07.134Z,1006.01
2022-10-21T11:01:07.262Z,1005.95
2022-10-21T11:02:07.101Z,1005.99
2022-10-21T11:03:07.103Z,1006.00
2022-10-21T11:04:07.101Z,1005.99
2022-10-21T11:05:07.131Z,1005.97
2022-10-21T11:06:07.095Z,1005.98
2022-10-21T11:07:07.097Z,1005.98
2022-10-21T11:08:07.095Z,1005.94
2022-10-21T11:09:07.170Z,1005.94
2022-10-21T11:10:07.224Z,1005.92
2022-10-21T11:11:07.081Z,1005.96
2022-10-21T11:12:07.090Z,1005.99
2022-10-21T11:13:07.092Z,1005.97
2022-10-21T11:14:07.083Z,1005.95
2022-10-21T11:15:07.081Z,1005.98
2022-10-21T11:16:07.074Z,1005.96
2022-10-21T11:17:07.089Z,1005.92
2022-10-21T11:18:23.253Z,1005.98
2022-10-21T11:19:07.139Z,1005.98
2022-10-21T11:20:07.089Z,1005.98
2022-10-21T11:21:07.061Z,1005.94
2022-10-21T11:22:07.070Z,1005.92
2022-10-21T11:24:07.073Z,1005.93
2022-10-21T11:25:07.068Z,1005.90
2022-10-21T11:26:07.172Z,1005.88
2022-10-21T11:27:07.082Z,1005.90
2022-10-21T11:28:07.082Z,1005.93
2022-10-21T11:29:07.069Z,1005.90
2022-10-21T11:30:07.051Z,1005.82
2022-10-21T11:31:07.056Z,1005.85
2022-10-21T11:32:11.656Z,1005.84
2022-10-21T11:33:07.054Z,1005.81
2022-10-21T11:34:11.468Z,1005.88
2022-10-21T11:35:07.035Z,1005.91
2022-10-21T11:36:07.040Z,1005.90
2022-10-21T11:37:07.040Z,1005.91
2022-10-21T11:38:07.052Z,1005.87
2022-10-21T11:39:07.058Z,1005.87
2022-10-21T11:40:07.047Z,1005.89
2022-10-21T11:41:07.105Z,1005.87
2022-10-21T11:42:07.130Z,1005.86
2022-10-21T11:43:07.063Z,1005.86
2022-10-21T11:44:07.030Z,1005.79
2022-10-21T11:45:07.029Z,1005.81
2022-10-21T11:46:07.060Z,1005.80
2022-10-21T11:47:07.015Z,1005.78
2022-10-21T11:48:07.026Z,1005.79
2022-10-21T11:49:07.017Z,1005.82
2022-10-21T11:50:07.060Z,1005.81
2022-10-21T11:51:07.019Z,1005.81
2022-10-21T11:52:07.046Z,1005.85
2022-10-21T11:53:07.009Z,1005.80
2022-10-21T11:54:07.027Z,1005.81
2022-10-21T11:55:10.472Z,1005.80
2022-10-21T11:56:07.010Z,1005.80
2022-10-21T11:57:07.002Z,1005.82
2022-10-21T11:58:07.116Z,1005.87
2022-10-21T11:59:06.990Z,1005.86
2022-10-21T12:00:07.007Z,1005.86
2022-10-21T12:01:06.999Z,1005.89
2022-10-21T12:02:07.024Z,1005.89
2022-10-21T12:03:07.018Z,1005.91
2022-10-21T12:04:07.007Z,1005.86
2022-10-21T12:05:06.990Z,1005.88
2022-10-21T12:06:06.987Z,1005.88
2022-10-21T12:07:11.014Z,1005.91
2022-10-21T12:08:06.980Z,1005.89
2022-10-21T12:09:06.995Z,1005.84